Douala International Airport


Codes: FKKD/DLA
Name: Douala International Airport
City: Douala
Country: Cameroon
Elevation: 33 ft.
Wikipedia:

Photos at Douala International Airport


   Photos courtesy of SpottingLog. You can add your own sightings and photos by signing up for a free trial today.



No photos found.

Weather at Douala International Airport


Time (UTC)DescriptionTempratureWindCloud coverageVisibilityPressureHumidity
26-Jun-2024 00:00Light Rain26°C2 mph, N75%10000m1012hPa94%
26-Jun-2024 03:00Light Rain25°C2 mph, NE68%10000m1012hPa95%
26-Jun-2024 06:00Broken Clouds25°C2 mph, NE68%10000m1012hPa93%
26-Jun-2024 09:00Broken Clouds29°C2 mph, N61%10000m1013hPa68%
26-Jun-2024 12:00Light Rain30°C7 mph, SW68%10000m1010hPa68%
26-Jun-2024 15:00Light Rain29°C9 mph, SW62%10000m1009hPa69%
26-Jun-2024 18:00Light Rain26°C9 mph, SW77%10000m1010hPa85%
26-Jun-2024 21:00Moderate Rain25°C7 mph, SW100%10000m1012hPa92%
27-Jun-2024 00:00Moderate Rain24°C2 mph, S100%10000m1011hPa94%
27-Jun-2024 03:00Light Rain24°C0 mph, S100%10000m1011hPa94%
27-Jun-2024 06:00Light Rain24°C2 mph, NE100%10000m1012hPa94%
27-Jun-2024 09:00Light Rain27°C0 mph, E100%8389m1013hPa84%
27-Jun-2024 12:00Moderate Rain28°C7 mph, SW99%10000m1011hPa75%
27-Jun-2024 15:00Light Rain26°C9 mph, SW100%10000m1010hPa87%
27-Jun-2024 18:00Light Rain25°C7 mph, SW100%10000m1011hPa89%
27-Jun-2024 21:00Light Rain25°C2 mph, SW100%10000m1013hPa91%
28-Jun-2024 00:00Moderate Rain24°C2 mph, NE100%8921m1012hPa97%
28-Jun-2024 03:00Light Rain24°C2 mph, NE100%10000m1011hPa97%
28-Jun-2024 06:00Light Rain24°C2 mph, N99%10000m1013hPa95%
28-Jun-2024 09:00Light Rain26°C0 mph, N100%10000m1013hPa87%
28-Jun-2024 12:00Light Rain30°C7 mph, SW94%10000m1012hPa68%
28-Jun-2024 15:00Light Rain28°C11 mph, SW99%10000m1010hPa74%
28-Jun-2024 18:00Light Rain26°C7 mph, SW96%10000m1012hPa86%
28-Jun-2024 21:00Light Rain25°C4 mph, SW100%10000m1013hPa92%
29-Jun-2024 00:00Moderate Rain24°C4 mph, SW100%5357m1013hPa94%
29-Jun-2024 03:00Moderate Rain24°C4 mph, S100%8001m1012hPa95%
29-Jun-2024 06:00Moderate Rain24°C4 mph, SE100%4659m1013hPa97%
29-Jun-2024 09:00Moderate Rain24°C7 mph, SW100%10000m1014hPa94%
29-Jun-2024 12:00Light Rain26°C7 mph, SW100%10000m1013hPa80%
29-Jun-2024 15:00Light Rain27°C7 mph, SW93%10000m1011hPa76%
29-Jun-2024 18:00Light Rain24°C4 mph, SW94%10000m1012hPa89%
29-Jun-2024 21:00Overcast Clouds24°C2 mph, SW100%10000m1014hPa90%
30-Jun-2024 00:00Light Rain24°C2 mph, SW93%10000m1013hPa94%
30-Jun-2024 03:00Light Rain24°C2 mph, SW89%10000m1013hPa94%
30-Jun-2024 06:00Moderate Rain24°C2 mph, S95%6813m1014hPa95%
30-Jun-2024 09:00Light Rain25°C4 mph, SW98%10000m1015hPa88%
30-Jun-2024 12:00Light Rain27°C7 mph, SW92%10000m1013hPa79%
30-Jun-2024 15:00Light Rain28°C9 mph, SW64%10000m1011hPa72%
30-Jun-2024 18:00Broken Clouds25°C7 mph, SW66%10000m1012hPa86%
30-Jun-2024 21:00Overcast Clouds25°C4 mph, SW95%10000m1014hPa89%